Wabowden, Canada
Current Conditions -  °F | °C
As of 3:00 AM on Friday 24 Oct 2014 (Local Time) from CYTH Reporting Station
Drizzle Drizzle  
Wind Chill: 36°   Ceiling: 200
Heat Index: 36°   Visibility: 0.25mi
Dew Point: 36°   Wind: 0mph
Humidity: 100%   Direction: NA
Pressure: 29.57"   Gusts: NA
Location:  54.92°N, 98.63°W
Report Text: CYTH 240800Z 00000KT 1/4SM R06/P6000FT/U -DZ FG BKN002 BKN008 OVC035 02/02 A2957 RMK FG4ST2ST2ST1 SLP025
Loading
Personal Weather Stations






























Interactive Weather Map
Tropical Storm Tracking
New forecast layout! Learn more

10-Day Weather Forecast

Advertisements
Track Severe Weather on mobile